createdAt,value
2019-05-22T00:00:59.942Z,88.32
2019-05-22T00:04:23.914Z,88.18
2019-05-22T00:07:51.273Z,88.43
2019-05-22T00:11:02.132Z,88.35
2019-05-22T00:14:10.989Z,88.33
2019-05-22T00:17:27.547Z,87.79
2019-05-22T00:20:39.487Z,87.54
2019-05-22T00:23:49.219Z,88.16
2019-05-22T00:26:58.466Z,88.39
2019-05-22T00:30:10.127Z,88.30
2019-05-22T00:33:31.422Z,87.66
2019-05-22T00:36:40.992Z,87.94
2019-05-22T00:39:51.793Z,87.57
2019-05-22T00:43:18.914Z,86.90
2019-05-22T00:46:28.505Z,86.44
2019-05-22T00:49:40.121Z,85.94
2019-05-22T00:53:00.878Z,86.89
2019-05-22T00:56:55.246Z,87.01
2019-05-22T01:00:24.686Z,87.12
2019-05-22T01:03:36.929Z,86.72
2019-05-22T01:06:58.561Z,86.23
2019-05-22T01:10:10.612Z,86.73
2019-05-22T01:13:22.826Z,86.85
2019-05-22T01:16:33.078Z,86.85
2019-05-22T01:19:43.777Z,86.58
2019-05-22T01:22:54.060Z,86.77
2019-05-22T01:26:03.272Z,86.47
2019-05-22T01:29:13.751Z,85.84
2019-05-22T01:32:33.699Z,85.79
2019-05-22T01:35:49.610Z,85.98
2019-05-22T01:39:15.063Z,86.01
2019-05-22T01:42:30.351Z,86.51
2019-05-22T01:45:40.708Z,86.45
2019-05-22T01:48:51.982Z,86.55
2019-05-22T01:52:01.329Z,86.60
2019-05-22T01:55:10.132Z,86.78
2019-05-22T01:58:22.022Z,86.85
2019-05-22T02:01:32.468Z,86.51
2019-05-22T02:04:42.669Z,85.98
2019-05-22T02:07:52.004Z,86.20
2019-05-22T02:11:02.024Z,86.27
2019-05-22T02:14:15.464Z,86.00
2019-05-22T02:17:31.772Z,86.23
2019-05-22T02:20:42.167Z,86.36
2019-05-22T02:24:02.113Z,86.16
2019-05-22T02:27:22.401Z,86.12
2019-05-22T02:30:33.792Z,86.28
2019-05-22T02:34:00.071Z,85.71
2019-05-22T02:37:08.948Z,85.79
2019-05-22T02:40:26.045Z,85.94
2019-05-22T02:43:36.121Z,86.24
2019-05-22T02:46:45.162Z,86.41
2019-05-22T02:49:56.064Z,86.37
2019-05-22T02:53:08.781Z,86.45
2019-05-22T02:56:27.639Z,85.74
2019-05-22T02:59:36.860Z,85.74
2019-05-22T03:02:57.530Z,85.66
2019-05-22T03:06:12.419Z,85.70
2019-05-22T03:09:29.061Z,85.96
2019-05-22T03:12:39.266Z,85.89
2019-05-22T03:15:47.991Z,85.99
2019-05-22T03:19:08.282Z,85.45
2019-05-22T03:22:27.037Z,85.73
2019-05-22T03:25:35.570Z,86.17
2019-05-22T03:28:46.070Z,86.08
2019-05-22T03:31:55.184Z,86.28
2019-05-22T03:35:15.697Z,86.16
2019-05-22T03:38:26.301Z,85.62
2019-05-22T03:41:35.899Z,85.54
2019-05-22T03:44:45.428Z,85.12
2019-05-22T03:47:57.199Z,85.30
2019-05-22T03:51:17.552Z,85.39
2019-05-22T03:54:28.009Z,85.95
2019-05-22T03:57:38.230Z,85.47
2019-05-22T04:00:47.619Z,85.67
2019-05-22T04:04:10.045Z,85.41
2019-05-22T04:07:29.000Z,85.32
2019-05-22T04:10:52.949Z,85.27
2019-05-22T04:14:01.755Z,85.51
2019-05-22T04:17:13.666Z,85.49
2019-05-22T04:20:23.210Z,85.55
2019-05-22T04:23:32.511Z,84.97
2019-05-22T04:26:52.060Z,84.98
2019-05-22T04:30:00.655Z,85.27
2019-05-22T04:33:21.443Z,85.12
2019-05-22T04:36:30.771Z,84.82
2019-05-22T04:39:41.594Z,84.65
2019-05-22T04:42:50.936Z,84.80
2019-05-22T04:46:01.087Z,84.89
2019-05-22T04:49:10.019Z,85.41
2019-05-22T04:52:18.776Z,85.85
2019-05-22T04:55:29.077Z,85.94
2019-05-22T04:58:37.782Z,86.13
2019-05-22T05:01:46.941Z,86.31
2019-05-22T05:04:55.900Z,85.50
2019-05-22T05:08:16.800Z,86.06
2019-05-22T05:11:25.575Z,85.94
2019-05-22T05:14:53.404Z,85.57
2019-05-22T05:18:14.121Z,85.81
2019-05-22T05:21:22.701Z,85.81
2019-05-22T05:24:50.559Z,86.14
2019-05-22T05:27:59.195Z,86.27
2019-05-22T05:31:18.567Z,85.90
2019-05-22T05:35:09.486Z,85.84
2019-05-22T05:38:20.835Z,85.51
2019-05-22T05:41:29.785Z,85.58
2019-05-22T05:44:38.802Z,85.01
2019-05-22T05:47:48.199Z,85.40
2019-05-22T05:51:27.650Z,85.31
2019-05-22T05:54:49.556Z,85.80
2019-05-22T05:58:27.810Z,85.49
2019-05-22T06:01:54.935Z,85.21
2019-05-22T06:05:03.977Z,85.44
2019-05-22T06:08:12.945Z,85.35
2019-05-22T06:11:49.395Z,85.44
2019-05-22T06:14:58.178Z,85.41
2019-05-22T06:18:38.518Z,85.39
2019-05-22T06:21:51.454Z,85.29
2019-05-22T06:25:04.686Z,85.48
2019-05-22T06:28:15.524Z,85.29
2019-05-22T06:32:12.555Z,85.09
2019-05-22T06:35:21.999Z,85.25
2019-05-22T06:39:03.393Z,85.17
2019-05-22T06:42:12.140Z,85.33
2019-05-22T06:45:20.801Z,84.83
2019-05-22T06:48:29.810Z,84.70
2019-05-22T06:51:39.598Z,85.01
2019-05-22T06:54:48.875Z,84.43
2019-05-22T06:57:57.837Z,84.24
2019-05-22T07:01:07.695Z,84.46
2019-05-22T07:04:17.486Z,84.36
2019-05-22T07:07:29.424Z,83.88
2019-05-22T07:10:49.167Z,84.37
2019-05-22T07:13:59.629Z,84.65
2019-05-22T07:17:10.220Z,84.66
2019-05-22T07:20:22.119Z,84.90
2019-05-22T07:23:33.087Z,84.94
2019-05-22T07:26:42.439Z,85.20
2019-05-22T07:30:01.284Z,85.51
2019-05-22T07:33:10.855Z,85.00
2019-05-22T07:36:20.685Z,84.91
2019-05-22T07:39:30.813Z,84.65
2019-05-22T07:42:40.079Z,84.83
2019-05-22T07:45:59.809Z,84.61
2019-05-22T07:49:08.523Z,84.31
2019-05-22T07:52:18.178Z,84.16
2019-05-22T07:55:28.580Z,84.37
2019-05-22T07:58:37.164Z,84.39
2019-05-22T08:01:45.853Z,84.20
2019-05-22T08:04:56.243Z,84.58
2019-05-22T08:08:05.126Z,84.44
2019-05-22T08:11:15.308Z,84.12
2019-05-22T08:14:25.321Z,83.99
2019-05-22T08:17:35.300Z,83.67
2019-05-22T08:20:43.863Z,83.44
2019-05-22T08:23:54.138Z,83.71
2019-05-22T08:27:02.825Z,82.67
2019-05-22T08:30:12.829Z,82.75
2019-05-22T08:33:23.739Z,82.42
2019-05-22T08:36:33.127Z,82.45
2019-05-22T08:39:53.330Z,82.00
2019-05-22T08:43:02.052Z,81.80
2019-05-22T08:46:12.701Z,81.66
2019-05-22T08:49:21.802Z,81.17
2019-05-22T08:52:31.417Z,81.01
2019-05-22T08:55:41.257Z,81.39
2019-05-22T08:59:18.444Z,79.86
2019-05-22T09:02:12.202Z,79.95
2019-05-22T09:05:22.055Z,80.47
2019-05-22T09:08:30.882Z,80.67
2019-05-22T09:11:49.642Z,80.27
2019-05-22T09:14:59.687Z,81.05
2019-05-22T09:18:08.929Z,81.22
2019-05-22T09:21:18.301Z,80.58
2019-05-22T09:24:29.153Z,80.90
2019-05-22T09:27:38.127Z,81.06
2019-05-22T09:30:46.982Z,79.76
2019-05-22T09:33:56.137Z,79.42
2019-05-22T09:37:04.994Z,79.33
2019-05-22T09:40:14.229Z,79.45
2019-05-22T09:43:33.739Z,78.99
2019-05-22T09:46:42.489Z,79.39
2019-05-22T09:49:51.207Z,78.52
2019-05-22T09:53:10.220Z,77.97
2019-05-22T09:56:31.089Z,77.69
2019-05-22T09:59:39.745Z,78.28
2019-05-22T10:02:48.452Z,78.07
2019-05-22T10:05:57.426Z,78.03
2019-05-22T10:09:08.745Z,77.69
2019-05-22T10:12:17.692Z,77.36
2019-05-22T10:15:28.532Z,77.30
2019-05-22T10:18:37.530Z,76.71
2019-05-22T10:21:46.226Z,75.60
2019-05-22T10:25:13.986Z,75.08
2019-05-22T10:28:08.051Z,75.44
2019-05-22T10:31:17.968Z,75.84
2019-05-22T10:34:27.162Z,76.24
2019-05-22T10:37:35.772Z,75.31
2019-05-22T10:40:44.614Z,75.75
2019-05-22T10:43:53.578Z,75.33
2019-05-22T10:47:04.630Z,75.73
2019-05-22T10:50:14.279Z,75.22
2019-05-22T10:53:33.131Z,74.53
2019-05-22T10:56:33.612Z,73.46
2019-05-22T10:59:42.325Z,73.50
2019-05-22T11:02:51.672Z,72.54
2019-05-22T11:06:07.318Z,72.92
2019-05-22T11:09:12.121Z,72.13
2019-05-22T11:12:20.972Z,72.60
2019-05-22T11:15:29.965Z,72.88
2019-05-22T11:18:38.967Z,73.41
2019-05-22T11:21:48.182Z,72.85
2019-05-22T11:25:08.974Z,72.93
2019-05-22T11:28:17.525Z,72.14
2019-05-22T11:31:26.575Z,72.47
2019-05-22T11:34:36.053Z,70.89
2019-05-22T11:37:44.821Z,71.55
2019-05-22T11:40:52.010Z,71.54
2019-05-22T11:44:00.939Z,70.76
2019-05-22T11:47:12.307Z,70.61
2019-05-22T11:50:23.761Z,71.05
2019-05-22T11:53:34.118Z,70.94
2019-05-22T11:56:43.135Z,70.98
2019-05-22T11:59:52.185Z,71.37
2019-05-22T12:03:03.317Z,68.43
2019-05-22T12:06:13.761Z,67.55
2019-05-22T12:09:23.462Z,67.80
2019-05-22T12:12:35.153Z,68.91
2019-05-22T12:15:43.096Z,68.19
2019-05-22T12:18:52.512Z,66.08
2019-05-22T12:22:01.283Z,66.98
2019-05-22T12:25:12.434Z,66.98
2019-05-22T12:28:21.269Z,67.77
2019-05-22T12:31:40.317Z,67.82
2019-05-22T12:34:49.479Z,67.53
2019-05-22T12:38:00.766Z,66.48
2019-05-22T12:41:10.223Z,65.30
2019-05-22T12:44:30.378Z,65.93
2019-05-22T12:47:39.389Z,65.05
2019-05-22T12:50:48.141Z,64.35
2019-05-22T12:53:56.891Z,65.29
2019-05-22T12:57:07.160Z,64.96
2019-05-22T13:00:16.286Z,65.69
2019-05-22T13:03:26.086Z,65.22
2019-05-22T13:06:45.996Z,64.73
2019-05-22T13:09:54.768Z,65.10
2019-05-22T13:13:03.781Z,65.75
2019-05-22T13:16:13.596Z,65.45
2019-05-22T13:19:35.281Z,65.81
2019-05-22T13:22:48.543Z,66.34
2019-05-22T13:25:57.877Z,65.90
2019-05-22T13:29:08.805Z,65.63
2019-05-22T13:32:20.125Z,65.07
2019-05-22T13:35:29.378Z,65.76
2019-05-22T13:38:38.994Z,65.36
2019-05-22T13:41:48.345Z,64.94
2019-05-22T13:44:58.007Z,64.58
2019-05-22T13:48:06.839Z,63.65
2019-05-22T13:51:16.280Z,63.73
2019-05-22T13:54:26.653Z,62.61
2019-05-22T13:57:35.759Z,61.40
2019-05-22T14:00:45.368Z,61.48
2019-05-22T14:03:54.335Z,61.41
2019-05-22T14:07:06.495Z,59.31
2019-05-22T14:10:16.215Z,60.26
2019-05-22T14:13:36.764Z,59.24
2019-05-22T14:16:49.236Z,59.19
2019-05-22T14:19:56.436Z,59.62
2019-05-22T14:23:05.152Z,59.89
2019-05-22T14:26:14.327Z,59.82
2019-05-22T14:29:33.230Z,60.29
2019-05-22T14:32:42.683Z,60.02
2019-05-22T14:35:52.715Z,60.63
2019-05-22T14:39:14.302Z,62.09
2019-05-22T14:42:23.709Z,62.36
2019-05-22T14:45:32.875Z,62.55
2019-05-22T14:48:52.358Z,62.22
2019-05-22T14:52:01.068Z,62.10
2019-05-22T14:55:10.347Z,61.95
2019-05-22T14:58:29.634Z,61.79
2019-05-22T15:01:49.463Z,60.74
2019-05-22T15:05:10.967Z,60.80
2019-05-22T15:08:30.077Z,59.72
2019-05-22T15:11:38.937Z,58.95
2019-05-22T15:14:47.852Z,58.20
2019-05-22T15:17:56.901Z,57.36
2019-05-22T15:21:17.668Z,56.74
2019-05-22T15:24:27.581Z,57.41
2019-05-22T15:27:37.448Z,56.83
2019-05-22T15:30:47.028Z,57.30
2019-05-22T15:33:56.299Z,57.56
2019-05-22T15:37:24.094Z,57.35
2019-05-22T15:40:47.039Z,58.32
2019-05-22T15:43:55.785Z,58.24
2019-05-22T15:47:06.802Z,58.37
2019-05-22T15:50:19.780Z,58.51
2019-05-22T15:53:29.717Z,58.17
2019-05-22T15:56:40.558Z,58.10
2019-05-22T15:59:50.290Z,58.11
2019-05-22T16:03:21.214Z,58.21
2019-05-22T16:06:31.649Z,58.57
2019-05-22T16:09:41.057Z,57.87
2019-05-22T16:12:51.839Z,58.71
2019-05-22T16:16:13.273Z,58.98
2019-05-22T16:19:25.760Z,59.08
2019-05-22T16:22:35.279Z,59.78
2019-05-22T16:25:55.508Z,60.71
2019-05-22T16:29:04.620Z,60.49
2019-05-22T16:32:14.661Z,60.11
2019-05-22T16:35:25.416Z,58.61
2019-05-22T16:38:34.810Z,58.88
2019-05-22T16:41:55.184Z,58.71
2019-05-22T16:45:05.567Z,58.80
2019-05-22T16:48:28.345Z,58.93
2019-05-22T16:51:28.963Z,58.36
2019-05-22T16:54:50.687Z,60.18
2019-05-22T16:57:59.242Z,59.85
2019-05-22T17:01:10.283Z,59.69
2019-05-22T17:04:19.627Z,60.22
2019-05-22T17:07:29.010Z,60.57
2019-05-22T17:10:37.815Z,61.08
2019-05-22T17:13:47.562Z,61.07
2019-05-22T17:16:56.364Z,60.75
2019-05-22T17:20:06.574Z,60.45
2019-05-22T17:23:15.454Z,61.13
2019-05-22T17:26:25.637Z,61.13
2019-05-22T17:29:35.497Z,60.97
2019-05-22T17:32:45.735Z,61.52
2019-05-22T17:35:55.091Z,61.29
2019-05-22T17:39:05.511Z,61.71
2019-05-22T17:42:16.895Z,61.92
2019-05-22T17:45:28.420Z,62.28
2019-05-22T17:48:55.174Z,62.43
2019-05-22T17:52:05.963Z,61.82
2019-05-22T17:55:16.352Z,62.14
2019-05-22T17:58:29.773Z,63.71
2019-05-22T18:01:35.786Z,64.01
2019-05-22T18:04:45.909Z,63.93
2019-05-22T18:07:55.733Z,63.62
2019-05-22T18:11:07.476Z,63.76
2019-05-22T18:14:26.999Z,63.58
2019-05-22T18:17:36.251Z,63.97
2019-05-22T18:20:45.510Z,64.52
2019-05-22T18:23:54.884Z,64.80
2019-05-22T18:27:15.028Z,65.25
2019-05-22T18:30:38.149Z,65.53
2019-05-22T18:33:46.753Z,65.89
2019-05-22T18:36:55.571Z,65.64
2019-05-22T18:40:04.540Z,65.61
2019-05-22T18:43:14.090Z,65.67
2019-05-22T18:46:22.784Z,66.01
2019-05-22T18:49:30.024Z,65.16
2019-05-22T18:52:41.459Z,65.39
2019-05-22T18:56:01.095Z,66.20
2019-05-22T18:59:09.729Z,66.29
2019-05-22T19:02:18.539Z,66.67
2019-05-22T19:05:30.482Z,66.69
2019-05-22T19:08:40.013Z,67.29
2019-05-22T19:11:48.557Z,66.92
2019-05-22T19:14:57.497Z,67.86
2019-05-22T19:18:06.856Z,68.00
2019-05-22T19:21:15.775Z,68.26
2019-05-22T19:24:24.662Z,67.86
2019-05-22T19:27:34.599Z,67.71
2019-05-22T19:30:53.966Z,67.79
2019-05-22T19:34:14.479Z,67.87
2019-05-22T19:37:23.027Z,68.17
2019-05-22T19:40:32.209Z,68.44
2019-05-22T19:43:40.850Z,68.63
2019-05-22T19:46:50.884Z,68.50
2019-05-22T19:50:00.336Z,68.68
2019-05-22T19:53:18.638Z,69.03
2019-05-22T19:56:23.806Z,69.40
2019-05-22T19:59:41.893Z,69.53
2019-05-22T20:02:51.113Z,69.37
2019-05-22T20:06:11.798Z,69.85
2019-05-22T20:09:20.589Z,70.43
2019-05-22T20:12:29.700Z,70.32
2019-05-22T20:15:38.934Z,70.78
2019-05-22T20:18:47.744Z,70.89
2019-05-22T20:21:59.954Z,71.02
2019-05-22T20:25:08.935Z,70.79
2019-05-22T20:28:17.578Z,70.80
2019-05-22T20:31:26.989Z,70.80
2019-05-22T20:34:36.309Z,70.94
2019-05-22T20:37:46.346Z,71.23
2019-05-22T20:40:54.853Z,71.29
2019-05-22T20:44:13.916Z,71.73
2019-05-22T20:47:33.678Z,71.75
2019-05-22T20:50:43.380Z,71.81
2019-05-22T20:53:54.629Z,71.99
2019-05-22T20:57:04.666Z,71.79
2019-05-22T21:00:17.230Z,72.32
2019-05-22T21:03:37.589Z,72.41
2019-05-22T21:07:00.353Z,72.53
2019-05-22T21:10:23.507Z,72.88
2019-05-22T21:13:32.914Z,73.27
2019-05-22T21:16:42.683Z,73.20
2019-05-22T21:19:52.594Z,73.29
2019-05-22T21:23:12.728Z,73.08
2019-05-22T21:26:22.218Z,73.71
2019-05-22T21:29:31.070Z,74.40
2019-05-22T21:32:40.658Z,74.04
2019-05-22T21:35:49.468Z,74.12
2019-05-22T21:38:58.597Z,74.53
2019-05-22T21:42:07.786Z,74.21
2019-05-22T21:45:17.788Z,74.86
2019-05-22T21:48:27.431Z,74.69
2019-05-22T21:51:38.052Z,75.08
2019-05-22T21:54:57.683Z,75.05
2019-05-22T21:58:07.445Z,75.34
2019-05-22T22:01:32.569Z,75.41
2019-05-22T22:04:41.476Z,74.99
2019-05-22T22:07:50.709Z,75.34
2019-05-22T22:11:01.237Z,75.33
2019-05-22T22:14:21.209Z,75.88
2019-05-22T22:17:30.900Z,76.18
2019-05-22T22:20:40.023Z,76.47
2019-05-22T22:23:59.093Z,76.52
2019-05-22T22:27:10.424Z,76.69
2019-05-22T22:30:28.182Z,76.96
2019-05-22T22:34:03.774Z,77.09
2019-05-22T22:37:13.324Z,77.42
2019-05-22T22:40:27.436Z,77.64
2019-05-22T22:43:49.105Z,77.71
2019-05-22T22:47:03.915Z,78.10
2019-05-22T22:50:15.887Z,77.76
2019-05-22T22:53:25.662Z,77.81
2019-05-22T22:56:34.272Z,77.85
2019-05-22T22:59:43.037Z,77.82
2019-05-22T23:02:53.101Z,78.02
2019-05-22T23:06:03.114Z,78.34
2019-05-22T23:09:14.959Z,78.14
2019-05-22T23:12:37.990Z,78.13
2019-05-22T23:16:00.470Z,78.16
2019-05-22T23:19:33.920Z,78.07
2019-05-22T23:22:40.500Z,77.96
2019-05-22T23:26:00.185Z,78.06
2019-05-22T23:29:09.551Z,78.06
2019-05-22T23:32:21.245Z,78.31
2019-05-22T23:35:31.386Z,78.45
2019-05-22T23:38:41.664Z,78.62
2019-05-22T23:41:55.986Z,78.53
2019-05-22T23:45:04.777Z,78.84
2019-05-22T23:48:16.476Z,78.98
2019-05-22T23:51:25.753Z,79.11
2019-05-22T23:54:35.549Z,79.20
2019-05-22T23:57:44.181Z,79.30
